Terminal Aerodrome Forecast
Issued by NWS

Home | Current Version | Previous Version | Text Only | Print | Product List | Glossary On
Versions: 1 2 3 4 5 6 7 8 9 10 11 12 13 14 15 16 17
672
FTUS43 KMQT 222044 AAB
TAFIWD
TAF AMD
KIWD 222044Z 2221/2318 36003KT P6SM BKN080
     FM230000 36003KT 5SM -SHRA SCT010 OVC040
     FM230200 02008KT 1 1/2SM -SHSN BR OVC010
     FM230900 36008KT 2SM -FZDZ BR OVC004
     FM231100 01007KT 3SM -FZDZSN OVC005=

USA.gov is the U.S. government's official web portal to all federal, state and local government web resources and services.